Anchorage, Alaska
Current Conditions -  °F | °C
As of 3:40 PM on Sunday 21 Dec 2014 (Local Time) from PANC Reporting Station
Light Snow Light Snow  
Wind Chill: -3°   Ceiling: 4500
Heat Index: -3°   Visibility: 10mi
Dew Point: -6°   Wind: 3mph
Humidity: 80%   Direction: 360°N
Pressure: 29.34"   Gusts: NA
Location:  61.16°N, 150.01°W
Report Text: PANC 220040Z 36003KT 10SM -SN FEW008 SCT018 OVC045 M03/M06 A2934 RMK AO2 LOW ST W PCPN VLGT P0000
Loading
Personal Weather Stations






























Interactive Weather Map New forecast layout! Learn more

10-Day Weather Forecast

Advertisements
Track Severe Weather on mobile